createdAt,value
2019-02-28T00:01:07.759Z,61.76
2019-02-28T00:03:35.996Z,61.81
2019-02-28T00:06:02.307Z,62.00
2019-02-28T00:08:28.598Z,61.92
2019-02-28T00:10:54.964Z,61.98
2019-02-28T00:13:22.426Z,61.98
2019-02-28T00:15:49.016Z,62.17
2019-02-28T00:18:16.488Z,62.21
2019-02-28T00:20:43.319Z,62.16
2019-02-28T00:23:09.646Z,62.40
2019-02-28T00:25:38.058Z,62.34
2019-02-28T00:28:04.175Z,62.62
2019-02-28T00:30:30.580Z,62.65
2019-02-28T00:32:59.325Z,62.81
2019-02-28T00:35:25.394Z,62.81
2019-02-28T00:37:51.792Z,62.79
2019-02-28T00:40:18.108Z,62.90
2019-02-28T00:42:44.407Z,63.26
2019-02-28T00:45:13.319Z,63.25
2019-02-28T00:47:39.634Z,63.07
2019-02-28T00:50:06.344Z,63.05
2019-02-28T00:52:35.471Z,62.81
2019-02-28T00:55:00.883Z,62.87
2019-02-28T00:57:27.592Z,62.73
2019-02-28T00:59:53.979Z,62.72
2019-02-28T01:02:20.649Z,62.79
2019-02-28T01:04:47.040Z,62.51
2019-02-28T01:07:16.252Z,62.28
2019-02-28T01:09:41.925Z,62.04
2019-02-28T01:12:08.521Z,62.01
2019-02-28T01:14:35.805Z,61.92
2019-02-28T01:17:03.007Z,61.85
2019-02-28T01:19:29.547Z,61.98
2019-02-28T01:21:56.297Z,62.09
2019-02-28T01:24:22.678Z,62.34
2019-02-28T01:26:49.099Z,62.17
2019-02-28T01:29:15.491Z,62.28
2019-02-28T01:31:42.631Z,62.31
2019-02-28T01:34:09.867Z,62.48
2019-02-28T01:36:36.301Z,62.57
2019-02-28T01:39:04.627Z,62.66
2019-02-28T01:41:30.955Z,62.91
2019-02-28T01:43:57.339Z,62.88
2019-02-28T01:46:23.682Z,63.05
2019-02-28T01:48:50.226Z,63.12
2019-02-28T01:51:16.656Z,63.14
2019-02-28T01:53:42.941Z,63.21
2019-02-28T01:56:09.485Z,63.11
2019-02-28T01:58:35.892Z,63.14
2019-02-28T02:01:02.405Z,63.01
2019-02-28T02:03:28.691Z,63.16
2019-02-28T02:05:55.132Z,62.52
2019-02-28T02:08:21.603Z,62.31
2019-02-28T02:10:48.156Z,61.87
2019-02-28T02:13:14.646Z,61.81
2019-02-28T02:15:41.038Z,61.45
2019-02-28T02:18:09.310Z,61.41
2019-02-28T02:20:35.913Z,61.05
2019-02-28T02:23:02.247Z,60.94
2019-02-28T02:25:28.531Z,60.93
2019-02-28T02:27:55.032Z,60.67
2019-02-28T02:30:22.921Z,60.47
2019-02-28T02:32:49.339Z,60.55
2019-02-28T02:35:15.741Z,60.46
2019-02-28T02:37:42.085Z,60.26
2019-02-28T02:40:12.089Z,60.01
2019-02-28T02:42:38.417Z,59.94
2019-02-28T02:45:08.253Z,59.85
2019-02-28T02:47:34.685Z,59.76
2019-02-28T02:50:01.072Z,59.78
2019-02-28T02:52:30.452Z,59.76
2019-02-28T02:54:55.868Z,59.95
2019-02-28T02:57:22.198Z,59.82
2019-02-28T02:59:48.516Z,59.71
2019-02-28T03:02:15.037Z,59.78
2019-02-28T03:04:41.869Z,59.60
2019-02-28T03:07:08.257Z,59.43
2019-02-28T03:09:34.927Z,59.33
2019-02-28T03:12:01.397Z,59.51
2019-02-28T03:14:27.899Z,59.43
2019-02-28T03:16:54.424Z,59.44
2019-02-28T03:19:20.770Z,59.63
2019-02-28T03:21:51.882Z,59.58
2019-02-28T03:24:16.426Z,60.00
2019-02-28T03:26:43.411Z,60.09
2019-02-28T03:29:09.911Z,59.95
2019-02-28T03:31:36.270Z,59.85
2019-02-28T03:34:10.113Z,60.13
2019-02-28T03:36:31.353Z,59.58
2019-02-28T03:38:57.737Z,59.43
2019-02-28T03:41:24.504Z,59.73
2019-02-28T03:43:50.929Z,59.73
2019-02-28T03:46:17.386Z,59.49
2019-02-28T03:48:43.875Z,59.53
2019-02-28T03:51:10.267Z,59.81
2019-02-28T03:53:36.701Z,59.94
2019-02-28T03:56:03.138Z,59.77
2019-02-28T03:58:29.948Z,59.72
2019-02-28T04:00:56.530Z,59.64
2019-02-28T04:03:22.840Z,59.65
2019-02-28T04:05:49.253Z,59.62
2019-02-28T04:08:15.561Z,59.48
2019-02-28T04:10:41.998Z,59.37
2019-02-28T04:13:08.447Z,59.06
2019-02-28T04:15:35.036Z,59.14
2019-02-28T04:18:07.053Z,59.16
2019-02-28T04:20:36.148Z,59.15
2019-02-28T04:22:59.870Z,59.00
2019-02-28T04:25:26.637Z,58.88
2019-02-28T04:27:53.108Z,58.91
2019-02-28T04:30:19.425Z,59.18
2019-02-28T04:32:45.813Z,59.02
2019-02-28T04:35:12.381Z,58.99
2019-02-28T04:37:45.019Z,58.74
2019-02-28T04:40:09.836Z,58.79
2019-02-28T04:42:38.293Z,58.94
2019-02-28T04:45:11.479Z,59.08
2019-02-28T04:47:40.516Z,59.29
2019-02-28T04:50:10.012Z,59.43
2019-02-28T04:52:36.464Z,59.45
2019-02-28T04:55:04.641Z,59.58
2019-02-28T04:57:30.959Z,59.82
2019-02-28T04:59:57.360Z,59.75
2019-02-28T05:02:23.788Z,59.61
2019-02-28T05:04:50.535Z,59.63
2019-02-28T05:07:16.926Z,59.71
2019-02-28T05:09:45.240Z,59.67
2019-02-28T05:12:11.660Z,59.69
2019-02-28T05:14:37.964Z,59.89
2019-02-28T05:17:04.331Z,59.80
2019-02-28T05:19:32.371Z,59.70
2019-02-28T05:21:58.993Z,59.60
2019-02-28T05:24:25.347Z,59.62
2019-02-28T05:26:51.646Z,59.62
2019-02-28T05:29:18.246Z,59.64
2019-02-28T05:31:44.527Z,59.58
2019-02-28T05:34:13.183Z,59.55
2019-02-28T05:36:39.361Z,59.24
2019-02-28T05:39:05.683Z,59.42
2019-02-28T05:41:31.967Z,59.85
2019-02-28T05:43:58.407Z,60.25
2019-02-28T05:46:24.699Z,60.94
2019-02-28T05:48:51.112Z,61.06
2019-02-28T05:51:17.601Z,61.23
2019-02-28T05:53:44.123Z,61.63
2019-02-28T05:56:10.483Z,61.73
2019-02-28T05:58:36.766Z,61.93
2019-02-28T06:01:03.267Z,61.67
2019-02-28T06:03:30.400Z,61.67
2019-02-28T06:05:56.984Z,61.57
2019-02-28T06:08:23.451Z,61.23
2019-02-28T06:10:49.900Z,60.67
2019-02-28T06:13:18.299Z,60.56
2019-02-28T06:15:44.791Z,59.60
2019-02-28T06:18:11.719Z,58.70
2019-02-28T06:20:38.139Z,58.09
2019-02-28T06:23:06.256Z,57.16
2019-02-28T06:25:32.936Z,56.47
2019-02-28T06:27:59.499Z,56.18
2019-02-28T06:30:27.666Z,56.68
2019-02-28T06:32:57.814Z,56.05
2019-02-28T06:35:22.528Z,55.81
2019-02-28T06:37:48.954Z,56.26
2019-02-28T06:40:16.093Z,55.33
2019-02-28T06:42:43.470Z,55.73
2019-02-28T06:45:18.972Z,55.25
2019-02-28T06:47:48.713Z,56.21
2019-02-28T06:50:15.583Z,56.07
2019-02-28T06:52:42.078Z,55.84
2019-02-28T06:55:12.610Z,55.58
2019-02-28T06:57:39.077Z,55.83
2019-02-28T07:00:14.549Z,55.84
2019-02-28T07:02:40.963Z,55.17
2019-02-28T07:05:07.280Z,54.98
2019-02-28T07:07:33.624Z,55.11
2019-02-28T07:10:00.284Z,53.63
2019-02-28T07:12:29.799Z,53.75
2019-02-28T07:14:54.921Z,53.63
2019-02-28T07:17:21.454Z,53.34
2019-02-28T07:19:48.102Z,52.01
2019-02-28T07:22:19.204Z,51.95
2019-02-28T07:24:43.172Z,51.05
2019-02-28T07:27:09.531Z,52.75
2019-02-28T07:29:37.831Z,51.38
2019-02-28T07:32:04.433Z,51.61
2019-02-28T07:34:30.715Z,50.61
2019-02-28T07:36:57.287Z,51.17
2019-02-28T07:39:23.965Z,50.46
2019-02-28T07:41:50.603Z,49.53
2019-02-28T07:44:21.197Z,49.27
2019-02-28T07:46:45.438Z,48.44
2019-02-28T07:49:11.827Z,47.69
2019-02-28T07:51:38.477Z,46.93
2019-02-28T07:54:04.874Z,46.08
2019-02-28T07:56:31.231Z,44.39
2019-02-28T07:58:57.560Z,43.70
2019-02-28T08:01:24.516Z,43.52
2019-02-28T08:03:52.359Z,44.22
2019-02-28T08:06:18.748Z,43.11
2019-02-28T08:08:45.155Z,43.69
2019-02-28T08:11:11.588Z,44.26
2019-02-28T08:13:38.643Z,43.30
2019-02-28T08:16:05.219Z,43.03
2019-02-28T08:18:31.726Z,42.56
2019-02-28T08:20:58.190Z,41.67
2019-02-28T08:23:24.679Z,41.51
2019-02-28T08:25:51.312Z,41.28
2019-02-28T08:28:18.115Z,40.64
2019-02-28T08:30:44.698Z,40.32
2019-02-28T08:33:11.178Z,39.98
2019-02-28T08:35:37.629Z,38.55
2019-02-28T08:38:03.906Z,40.08
2019-02-28T08:40:30.276Z,39.57
2019-02-28T08:42:56.686Z,39.13
2019-02-28T08:45:22.987Z,38.72
2019-02-28T08:47:55.417Z,38.72
2019-02-28T08:50:24.272Z,38.90
2019-02-28T08:53:04.533Z,39.64
2019-02-28T08:55:30.930Z,39.16
2019-02-28T08:58:04.427Z,38.24
2019-02-28T09:00:31.255Z,38.75
2019-02-28T09:02:54.877Z,39.37
2019-02-28T09:05:25.469Z,38.57
2019-02-28T09:07:51.289Z,39.84
2019-02-28T09:10:19.743Z,39.70
2019-02-28T09:12:46.405Z,39.03
2019-02-28T09:15:17.067Z,37.08
2019-02-28T09:17:43.476Z,38.57
2019-02-28T09:20:14.123Z,38.15
2019-02-28T09:22:40.856Z,38.88
2019-02-28T09:25:23.705Z,40.06
2019-02-28T09:27:50.114Z,40.28
2019-02-28T09:30:29.777Z,41.04
2019-02-28T09:32:57.675Z,40.38
2019-02-28T09:35:24.184Z,39.26
2019-02-28T09:37:50.628Z,39.19
2019-02-28T09:40:17.028Z,39.14
2019-02-28T09:42:44.564Z,40.86
2019-02-28T09:45:20.722Z,40.50
2019-02-28T09:47:46.998Z,40.58
2019-02-28T09:50:22.611Z,40.54
2019-02-28T09:52:49.750Z,40.63
2019-02-28T09:55:16.240Z,40.96
2019-02-28T09:57:42.685Z,39.20
2019-02-28T10:00:18.833Z,39.01
2019-02-28T10:02:45.354Z,39.12
2019-02-28T10:05:12.210Z,39.90
2019-02-28T10:07:38.743Z,40.80
2019-02-28T10:10:26.340Z,40.63
2019-02-28T10:12:52.992Z,39.62
2019-02-28T10:15:21.424Z,39.89
2019-02-28T10:17:47.849Z,40.69
2019-02-28T10:20:18.400Z,39.21
2019-02-28T10:22:47.337Z,40.57
2019-02-28T10:25:14.007Z,39.22
2019-02-28T10:27:40.582Z,39.90
2019-02-28T10:30:15.614Z,39.20
2019-02-28T10:32:43.334Z,39.16
2019-02-28T10:35:09.115Z,39.03
2019-02-28T10:37:35.783Z,40.30
2019-02-28T10:40:09.732Z,39.42
2019-02-28T10:42:36.992Z,39.04
2019-02-28T10:45:09.077Z,39.84
2019-02-28T10:47:35.409Z,40.20
2019-02-28T10:50:01.977Z,40.05
2019-02-28T10:52:30.650Z,39.57
2019-02-28T10:54:57.028Z,39.12
2019-02-28T10:57:23.333Z,39.01
2019-02-28T10:59:49.792Z,40.24
2019-02-28T11:02:18.937Z,39.33
2019-02-28T11:04:45.295Z,39.71
2019-02-28T11:07:11.715Z,39.64
2019-02-28T11:09:38.288Z,38.26
2019-02-28T11:12:04.829Z,38.71
2019-02-28T11:14:31.152Z,38.43
2019-02-28T11:16:59.396Z,39.18
2019-02-28T11:19:25.944Z,39.01
2019-02-28T11:21:52.510Z,38.42
2019-02-28T11:24:20.627Z,38.26
2019-02-28T11:26:47.265Z,37.75
2019-02-28T11:29:13.589Z,37.37
2019-02-28T11:31:39.877Z,36.66
2019-02-28T11:34:06.508Z,37.28
2019-02-28T11:36:33.986Z,37.19
2019-02-28T11:39:01.451Z,36.67
2019-02-28T11:41:27.848Z,36.52
2019-02-28T11:43:54.243Z,36.64
2019-02-28T11:46:20.545Z,37.41
2019-02-28T11:48:46.879Z,37.00
2019-02-28T11:51:14.620Z,37.00
2019-02-28T11:53:41.819Z,36.62
2019-02-28T11:56:08.103Z,37.23
2019-02-28T11:58:34.508Z,36.26
2019-02-28T12:01:02.296Z,36.75
2019-02-28T12:03:31.854Z,36.56
2019-02-28T12:05:57.476Z,36.53
2019-02-28T12:08:23.898Z,36.69
2019-02-28T12:10:50.376Z,36.80
2019-02-28T12:13:19.629Z,37.26
2019-02-28T12:15:44.946Z,37.17
2019-02-28T12:18:11.603Z,37.40
2019-02-28T12:20:38.016Z,36.04
2019-02-28T12:23:04.348Z,36.81
2019-02-28T12:25:30.638Z,37.51
2019-02-28T12:27:59.352Z,37.33
2019-02-28T12:30:31.103Z,37.34
2019-02-28T12:32:57.423Z,37.44
2019-02-28T12:35:23.817Z,37.79
2019-02-28T12:37:50.251Z,37.89
2019-02-28T12:40:23.946Z,37.96
2019-02-28T12:42:50.605Z,37.96
2019-02-28T12:45:25.524Z,37.57
2019-02-28T12:47:52.093Z,37.30
2019-02-28T12:50:18.455Z,37.50
2019-02-28T12:52:49.052Z,37.40
2019-02-28T12:55:18.264Z,38.01
2019-02-28T12:57:44.593Z,37.58
2019-02-28T13:00:43.044Z,37.41
2019-02-28T13:03:10.508Z,37.20
2019-02-28T13:05:36.956Z,37.42
2019-02-28T13:08:05.811Z,37.29
2019-02-28T13:10:32.131Z,37.68
2019-02-28T13:13:06.447Z,37.63
2019-02-28T13:15:27.403Z,38.13
2019-02-28T13:17:53.692Z,37.94
2019-02-28T13:20:33.700Z,37.79
2019-02-28T13:22:59.650Z,37.93
2019-02-28T13:25:26.050Z,37.97
2019-02-28T13:27:52.573Z,38.12
2019-02-28T13:30:22.604Z,38.02
2019-02-28T13:32:49.088Z,38.30
2019-02-28T13:35:22.553Z,38.66
2019-02-28T13:37:48.895Z,38.45
2019-02-28T13:40:15.283Z,38.32
2019-02-28T13:42:42.325Z,38.69
2019-02-28T13:45:23.075Z,38.29
2019-02-28T13:47:47.818Z,38.67
2019-02-28T13:50:22.033Z,37.97
2019-02-28T13:52:52.171Z,38.49
2019-02-28T13:55:18.902Z,38.40
2019-02-28T13:57:47.033Z,38.77
2019-02-28T14:00:27.571Z,38.81
2019-02-28T14:02:56.954Z,39.19
2019-02-28T14:05:23.313Z,39.15
2019-02-28T14:07:49.624Z,39.20
2019-02-28T14:10:17.740Z,39.55
2019-02-28T14:12:44.294Z,39.78
2019-02-28T14:18:32.136Z,40.22
2019-02-28T14:20:59.448Z,40.88
2019-02-28T14:23:26.780Z,40.51
2019-02-28T14:25:53.345Z,40.78
2019-02-28T14:28:19.814Z,40.91
2019-02-28T14:30:46.242Z,40.89
2019-02-28T14:33:12.582Z,40.88
2019-02-28T14:35:38.988Z,40.87
2019-02-28T14:38:05.561Z,40.86
2019-02-28T14:40:31.947Z,41.05
2019-02-28T14:42:58.380Z,40.94
2019-02-28T14:45:34.597Z,41.16
2019-02-28T14:48:03.945Z,40.76
2019-02-28T14:50:29.103Z,39.66
2019-02-28T14:52:56.800Z,40.30
2019-02-28T14:55:23.332Z,39.97
2019-02-28T14:57:49.868Z,39.96
2019-02-28T15:00:25.072Z,39.76
2019-02-28T15:02:51.484Z,39.97
2019-02-28T15:05:20.499Z,39.95
2019-02-28T15:07:46.120Z,39.42
2019-02-28T15:10:23.075Z,39.44
2019-02-28T15:12:49.468Z,38.77
2019-02-28T15:15:18.898Z,39.35
2019-02-28T15:17:45.462Z,38.59
2019-02-28T15:20:13.512Z,38.99
2019-02-28T15:22:40.133Z,39.32
2019-02-28T15:25:23.335Z,39.71
2019-02-28T15:27:49.969Z,39.63
2019-02-28T15:30:26.523Z,39.64
2019-02-28T15:32:54.243Z,39.76
2019-02-28T15:35:21.912Z,39.97
2019-02-28T15:37:48.247Z,39.86
2019-02-28T15:40:28.849Z,39.78
2019-02-28T15:42:55.314Z,40.14
2019-02-28T15:45:22.025Z,40.37
2019-02-28T15:47:50.538Z,40.36
2019-02-28T15:50:17.156Z,40.10
2019-02-28T15:52:43.792Z,40.42
2019-02-28T15:55:16.451Z,40.65
2019-02-28T15:57:42.781Z,40.90
2019-02-28T16:00:22.088Z,41.00
2019-02-28T16:02:48.364Z,41.15
2019-02-28T16:05:14.697Z,41.08
2019-02-28T16:07:41.163Z,41.08
2019-02-28T16:10:12.352Z,41.27
2019-02-28T16:12:38.655Z,41.24
2019-02-28T16:15:11.915Z,41.28
2019-02-28T16:17:37.400Z,41.37
2019-02-28T16:20:08.604Z,41.57
2019-02-28T16:22:35.094Z,41.64
2019-02-28T16:25:01.592Z,41.65
2019-02-28T16:27:29.533Z,42.00
2019-02-28T16:29:56.733Z,41.92
2019-02-28T16:32:23.263Z,41.97
2019-02-28T16:34:49.618Z,41.96
2019-02-28T16:37:16.435Z,42.12
2019-02-28T16:39:42.987Z,42.38
2019-02-28T16:42:11.598Z,42.23
2019-02-28T16:44:37.496Z,42.57
2019-02-28T16:47:03.986Z,42.76
2019-02-28T16:49:30.354Z,42.83
2019-02-28T16:51:56.788Z,42.73
2019-02-28T16:54:23.685Z,42.77
2019-02-28T16:57:54.953Z,42.89
2019-02-28T17:00:21.448Z,43.00
2019-02-28T17:02:47.747Z,42.96
2019-02-28T17:05:13.964Z,43.10
2019-02-28T17:07:40.532Z,43.31
2019-02-28T17:10:14.134Z,43.09
2019-02-28T17:12:59.532Z,43.39
2019-02-28T17:15:35.155Z,43.43
2019-02-28T17:18:03.458Z,43.49
2019-02-28T17:20:29.823Z,43.67
2019-02-28T17:22:58.555Z,43.86
2019-02-28T17:25:24.457Z,43.97
2019-02-28T17:27:58.680Z,43.98
2019-02-28T17:30:36.000Z,44.15
2019-02-28T17:33:01.168Z,44.30
2019-02-28T17:35:27.552Z,44.40
2019-02-28T17:37:53.869Z,44.67
2019-02-28T17:40:23.190Z,44.43
2019-02-28T17:42:49.824Z,44.57
2019-02-28T17:45:20.586Z,44.63
2019-02-28T17:48:09.691Z,45.07
2019-02-28T17:50:47.799Z,45.16
2019-02-28T17:53:59.560Z,45.04
2019-02-28T17:57:10.639Z,45.17
2019-02-28T18:00:24.083Z,45.19
2019-02-28T18:03:22.985Z,45.28
2019-02-28T18:06:00.636Z,45.40
2019-02-28T18:08:47.441Z,45.40
2019-02-28T18:11:35.104Z,45.55
2019-02-28T18:14:42.351Z,45.74
2019-02-28T18:17:38.777Z,45.73
2019-02-28T18:20:29.060Z,46.01
2019-02-28T18:23:24.890Z,46.15
2019-02-28T18:26:15.192Z,46.35
2019-02-28T18:28:58.101Z,46.58
2019-02-28T18:31:24.338Z,46.65
2019-02-28T18:33:54.744Z,46.98
2019-02-28T18:36:27.431Z,47.06
2019-02-28T18:38:53.734Z,47.22
2019-02-28T18:41:20.199Z,47.35
2019-02-28T18:43:46.389Z,47.52
2019-02-28T18:46:12.695Z,47.55
2019-02-28T18:48:39.004Z,47.85
2019-02-28T18:51:05.320Z,47.95
2019-02-28T18:53:31.837Z,48.20
2019-02-28T18:55:58.204Z,48.23
2019-02-28T18:58:24.541Z,48.41
2019-02-28T19:00:50.935Z,48.29
2019-02-28T19:03:17.371Z,48.73
2019-02-28T19:05:43.843Z,48.80
2019-02-28T19:08:10.407Z,48.91
2019-02-28T19:10:36.912Z,49.43
2019-02-28T19:13:04.538Z,49.58
2019-02-28T19:15:31.031Z,49.66
2019-02-28T19:17:57.705Z,49.80
2019-02-28T19:20:24.033Z,50.07
2019-02-28T19:22:50.350Z,50.40
2019-02-28T19:25:16.897Z,50.41
2019-02-28T19:27:43.244Z,50.62
2019-02-28T19:30:14.316Z,50.51
2019-02-28T19:32:40.725Z,50.67
2019-02-28T19:35:07.175Z,50.97
2019-02-28T19:37:33.435Z,50.93
2019-02-28T19:39:59.829Z,51.19
2019-02-28T19:42:26.183Z,51.56
2019-02-28T19:44:52.476Z,51.59
2019-02-28T19:47:18.766Z,51.90
2019-02-28T19:49:45.144Z,51.98
2019-02-28T19:52:11.335Z,52.41
2019-02-28T19:54:37.655Z,52.46
2019-02-28T19:57:03.965Z,52.53
2019-02-28T19:59:30.408Z,52.54
2019-02-28T20:01:56.826Z,52.60
2019-02-28T20:04:23.126Z,52.81
2019-02-28T20:06:49.428Z,53.04
2019-02-28T20:09:15.939Z,53.40
2019-02-28T20:11:42.248Z,53.19
2019-02-28T20:14:08.785Z,53.20
2019-02-28T20:16:35.184Z,53.12
2019-02-28T20:19:01.748Z,53.66
2019-02-28T20:21:28.195Z,53.46
2019-02-28T20:23:54.532Z,53.31
2019-02-28T20:26:20.965Z,53.39
2019-02-28T20:28:47.603Z,53.43
2019-02-28T20:31:14.129Z,53.55
2019-02-28T20:33:40.682Z,53.75
2019-02-28T20:36:06.968Z,53.71
2019-02-28T20:38:33.483Z,53.90
2019-02-28T20:40:59.847Z,54.02
2019-02-28T20:43:26.277Z,54.04
2019-02-28T20:45:52.572Z,54.09
2019-02-28T20:48:18.998Z,54.10
2019-02-28T20:50:52.155Z,54.28
2019-02-28T20:53:18.351Z,54.21
2019-02-28T20:55:44.672Z,54.02
2019-02-28T20:58:10.988Z,54.18
2019-02-28T21:00:37.583Z,54.36
2019-02-28T21:03:03.873Z,54.37
2019-02-28T21:05:30.176Z,54.51
2019-02-28T21:07:56.814Z,54.43
2019-02-28T21:10:23.275Z,54.56
2019-02-28T21:12:49.616Z,54.38
2019-02-28T21:15:16.138Z,54.45
2019-02-28T21:17:42.651Z,54.39
2019-02-28T21:20:14.657Z,54.71
2019-02-28T21:22:40.954Z,54.41
2019-02-28T21:25:13.937Z,54.56
2019-02-28T21:27:40.223Z,54.69
2019-02-28T21:30:25.555Z,54.62
2019-02-28T21:32:52.036Z,54.59
2019-02-28T21:35:18.705Z,54.69
2019-02-28T21:37:46.848Z,54.68
2019-02-28T21:40:17.989Z,54.56
2019-02-28T21:42:44.377Z,54.75
2019-02-28T21:45:17.180Z,54.68
2019-02-28T21:47:43.467Z,54.71
2019-02-28T21:50:15.143Z,54.65
2019-02-28T21:52:41.526Z,54.74
2019-02-28T21:55:11.274Z,54.90
2019-02-28T21:57:37.763Z,54.91
2019-02-28T22:00:09.575Z,55.05
2019-02-28T22:02:35.932Z,55.04
2019-02-28T22:05:02.372Z,54.90
2019-02-28T22:07:28.686Z,55.06
2019-02-28T22:09:55.155Z,54.98
2019-02-28T22:12:21.550Z,55.13
2019-02-28T22:14:48.015Z,55.38
2019-02-28T22:17:14.374Z,55.10
2019-02-28T22:19:40.886Z,55.55
2019-02-28T22:22:07.545Z,55.40
2019-02-28T22:24:33.885Z,55.64
2019-02-28T22:27:00.284Z,55.51
2019-02-28T22:29:26.650Z,55.59
2019-02-28T22:31:57.570Z,55.79
2019-02-28T22:34:31.539Z,55.90
2019-02-28T22:36:57.900Z,55.77
2019-02-28T22:39:24.391Z,55.80
2019-02-28T22:41:50.600Z,55.78
2019-02-28T22:44:16.989Z,55.94
2019-02-28T22:46:43.279Z,55.85
2019-02-28T22:49:09.647Z,55.91
2019-02-28T22:51:36.183Z,56.09
2019-02-28T22:54:02.617Z,56.10
2019-02-28T22:56:28.924Z,56.17
2019-02-28T22:58:55.303Z,56.33
2019-02-28T23:01:22.116Z,56.30
2019-02-28T23:03:48.654Z,56.42
2019-02-28T23:06:15.017Z,56.50
2019-02-28T23:08:41.628Z,56.67
2019-02-28T23:11:07.980Z,56.62
2019-02-28T23:13:34.440Z,56.68
2019-02-28T23:16:00.726Z,56.91
2019-02-28T23:18:27.448Z,56.84
2019-02-28T23:20:53.970Z,56.97
2019-02-28T23:23:20.298Z,57.07
2019-02-28T23:25:46.926Z,57.07
2019-02-28T23:28:24.413Z,57.12
2019-02-28T23:31:30.172Z,57.18
2019-02-28T23:34:10.667Z,57.41
2019-02-28T23:36:37.303Z,57.47
2019-02-28T23:39:05.739Z,57.54
2019-02-28T23:41:32.055Z,57.42
2019-02-28T23:43:58.866Z,57.62
2019-02-28T23:46:25.293Z,57.58
2019-02-28T23:48:51.721Z,57.70
2019-02-28T23:51:18.061Z,57.65
2019-02-28T23:53:44.468Z,57.93
2019-02-28T23:56:10.895Z,58.11
2019-02-28T23:58:37.327Z,58.12
